sensor_id;sensor_type;location;lat;lon;timestamp;temperature;humidity
48043;DHT22;33988;47.992;8.820;2022-09-13T00:01:11;17.70;58.40
48043;DHT22;33988;47.992;8.820;2022-09-13T00:03:38;17.70;58.50
48043;DHT22;33988;47.992;8.820;2022-09-13T00:06:16;17.70;58.50
48043;DHT22;33988;47.992;8.820;2022-09-13T00:08:45;17.60;58.50
48043;DHT22;33988;47.992;8.820;2022-09-13T00:13:53;17.60;58.60
48043;DHT22;33988;47.992;8.820;2022-09-13T00:16:24;17.60;58.50
48043;DHT22;33988;47.992;8.820;2022-09-13T00:18:59;17.60;58.60
48043;DHT22;33988;47.992;8.820;2022-09-13T00:21:26;17.60;58.60
48043;DHT22;33988;47.992;8.820;2022-09-13T00:23:56;17.60;58.60
48043;DHT22;33988;47.992;8.820;2022-09-13T00:26:27;17.60;58.60
48043;DHT22;33988;47.992;8.820;2022-09-13T00:29:00;17.60;58.60
48043;DHT22;33988;47.992;8.820;2022-09-13T00:31:27;17.60;58.60
48043;DHT22;33988;47.992;8.820;2022-09-13T00:33:57;17.50;58.50
48043;DHT22;33988;47.992;8.820;2022-09-13T00:36:25;17.60;58.60
48043;DHT22;33988;47.992;8.820;2022-09-13T00:38:54;17.50;58.60
48043;DHT22;33988;47.992;8.820;2022-09-13T00:41:21;17.50;58.60
48043;DHT22;33988;47.992;8.820;2022-09-13T00:43:57;17.50;58.70
48043;DHT22;33988;47.992;8.820;2022-09-13T00:46:37;17.50;58.70
48043;DHT22;33988;47.992;8.820;2022-09-13T00:51:53;17.40;58.80
48043;DHT22;33988;47.992;8.820;2022-09-13T00:54:28;17.40;59.40
48043;DHT22;33988;47.992;8.820;2022-09-13T00:57:01;17.40;59.40
48043;DHT22;33988;47.992;8.820;2022-09-13T00:59:46;17.40;58.80
48043;DHT22;33988;47.992;8.820;2022-09-13T01:02:42;17.40;58.90
48043;DHT22;33988;47.992;8.820;2022-09-13T01:05:16;17.40;58.70
48043;DHT22;33988;47.992;8.820;2022-09-13T01:07:44;17.40;58.80
48043;DHT22;33988;47.992;8.820;2022-09-13T01:10:14;17.30;58.70
48043;DHT22;33988;47.992;8.820;2022-09-13T01:13:04;17.30;58.70
48043;DHT22;33988;47.992;8.820;2022-09-13T01:15:43;17.20;59.00
48043;DHT22;33988;47.992;8.820;2022-09-13T01:18:13;17.30;58.90
48043;DHT22;33988;47.992;8.820;2022-09-13T01:21:06;17.30;59.50
48043;DHT22;33988;47.992;8.820;2022-09-13T01:35:56;17.10;58.80
48043;DHT22;33988;47.992;8.820;2022-09-13T01:58:28;16.90;59.10
48043;DHT22;33988;47.992;8.820;2022-09-13T02:01:07;16.90;59.20
48043;DHT22;33988;47.992;8.820;2022-09-13T02:03:52;16.90;59.10
48043;DHT22;33988;47.992;8.820;2022-09-13T02:06:27;16.80;59.10
48043;DHT22;33988;47.992;8.820;2022-09-13T02:09:00;16.80;59.10
48043;DHT22;33988;47.992;8.820;2022-09-13T02:11:33;16.80;59.10
48043;DHT22;33988;47.992;8.820;2022-09-13T02:16:53;16.80;59.20
48043;DHT22;33988;47.992;8.820;2022-09-13T02:19:28;16.80;59.30
48043;DHT22;33988;47.992;8.820;2022-09-13T02:21:59;16.80;59.20
48043;DHT22;33988;47.992;8.820;2022-09-13T02:24:41;16.80;59.20
48043;DHT22;33988;47.992;8.820;2022-09-13T02:27:14;16.70;59.30
48043;DHT22;33988;47.992;8.820;2022-09-13T02:29:46;16.70;59.20
48043;DHT22;33988;47.992;8.820;2022-09-13T02:32:21;16.70;59.20
48043;DHT22;33988;47.992;8.820;2022-09-13T02:35:21;16.70;59.30
48043;DHT22;33988;47.992;8.820;2022-09-13T02:38:12;16.60;59.30
48043;DHT22;33988;47.992;8.820;2022-09-13T02:40:52;16.60;59.40
48043;DHT22;33988;47.992;8.820;2022-09-13T02:43:33;16.60;59.30
48043;DHT22;33988;47.992;8.820;2022-09-13T02:46:31;16.60;59.40
48043;DHT22;33988;47.992;8.820;2022-09-13T02:49:33;16.60;59.50
48043;DHT22;33988;47.992;8.820;2022-09-13T02:52:18;16.50;59.20
48043;DHT22;33988;47.992;8.820;2022-09-13T02:54:56;16.50;59.30
48043;DHT22;33988;47.992;8.820;2022-09-13T02:57:55;16.50;59.30
48043;DHT22;33988;47.992;8.820;2022-09-13T03:00:28;16.50;59.50
48043;DHT22;33988;47.992;8.820;2022-09-13T03:03:04;16.50;59.30
48043;DHT22;33988;47.992;8.820;2022-09-13T03:05:33;16.50;59.40
48043;DHT22;33988;47.992;8.820;2022-09-13T03:08:01;16.50;59.40
48043;DHT22;33988;47.992;8.820;2022-09-13T03:22:18;16.40;59.70
48043;DHT22;33988;47.992;8.820;2022-09-13T03:25:37;16.30;59.80
48043;DHT22;33988;47.992;8.820;2022-09-13T03:30:54;16.30;59.60
48043;DHT22;33988;47.992;8.820;2022-09-13T03:36:23;16.30;59.70
48043;DHT22;33988;47.992;8.820;2022-09-13T03:39:08;16.30;59.60
48043;DHT22;33988;47.992;8.820;2022-09-13T03:42:02;16.30;59.70
48043;DHT22;33988;47.992;8.820;2022-09-13T03:44:32;16.30;59.60
48043;DHT22;33988;47.992;8.820;2022-09-13T03:47:03;16.30;59.60
48043;DHT22;33988;47.992;8.820;2022-09-13T03:49:37;16.30;59.60
48043;DHT22;33988;47.992;8.820;2022-09-13T03:52:07;16.20;59.50
48043;DHT22;33988;47.992;8.820;2022-09-13T03:54:36;16.20;59.50
48043;DHT22;33988;47.992;8.820;2022-09-13T03:57:14;16.20;59.50
48043;DHT22;33988;47.992;8.820;2022-09-13T04:02:18;16.20;59.50
48043;DHT22;33988;47.992;8.820;2022-09-13T04:04:47;16.10;59.50
48043;DHT22;33988;47.992;8.820;2022-09-13T04:07:26;16.20;59.60
48043;DHT22;33988;47.992;8.820;2022-09-13T04:09:53;16.10;59.70
48043;DHT22;33988;47.992;8.820;2022-09-13T04:12:22;16.10;59.60
48043;DHT22;33988;47.992;8.820;2022-09-13T04:14:49;16.10;59.60
48043;DHT22;33988;47.992;8.820;2022-09-13T04:17:16;16.00;59.60
48043;DHT22;33988;47.992;8.820;2022-09-13T04:19:46;16.00;59.60
48043;DHT22;33988;47.992;8.820;2022-09-13T04:22:13;16.00;59.60
48043;DHT22;33988;47.992;8.820;2022-09-13T04:24:43;16.00;59.60
48043;DHT22;33988;47.992;8.820;2022-09-13T04:27:15;16.00;59.60
48043;DHT22;33988;47.992;8.820;2022-09-13T04:29:44;16.00;59.60
48043;DHT22;33988;47.992;8.820;2022-09-13T04:32:11;15.80;59.70
48043;DHT22;33988;47.992;8.820;2022-09-13T04:34:41;15.90;59.50
48043;DHT22;33988;47.992;8.820;2022-09-13T04:37:08;16.00;59.50
48043;DHT22;33988;47.992;8.820;2022-09-13T04:39:36;15.90;59.50
48043;DHT22;33988;47.992;8.820;2022-09-13T04:42:05;15.90;59.50
48043;DHT22;33988;47.992;8.820;2022-09-13T04:44:33;15.90;59.60
48043;DHT22;33988;47.992;8.820;2022-09-13T04:47:03;15.90;59.60
48043;DHT22;33988;47.992;8.820;2022-09-13T04:49:30;15.90;59.70
48043;DHT22;33988;47.992;8.820;2022-09-13T04:51:57;15.80;59.60
48043;DHT22;33988;47.992;8.820;2022-09-13T04:54:28;15.80;59.60
48043;DHT22;33988;47.992;8.820;2022-09-13T04:56:56;15.80;59.70
48043;DHT22;33988;47.992;8.820;2022-09-13T04:59:25;15.80;59.60
48043;DHT22;33988;47.992;8.820;2022-09-13T05:01:54;15.70;59.70
48043;DHT22;33988;47.992;8.820;2022-09-13T05:04:27;15.70;59.70
48043;DHT22;33988;47.992;8.820;2022-09-13T05:06:56;15.70;59.80
48043;DHT22;33988;47.992;8.820;2022-09-13T05:09:28;15.60;59.80
48043;DHT22;33988;47.992;8.820;2022-09-13T05:11:57;15.60;60.00
48043;DHT22;33988;47.992;8.820;2022-09-13T05:14:25;15.60;60.00
48043;DHT22;33988;47.992;8.820;2022-09-13T05:16:52;15.60;60.10
48043;DHT22;33988;47.992;8.820;2022-09-13T05:19:22;15.60;60.20
48043;DHT22;33988;47.992;8.820;2022-09-13T05:21:48;15.60;60.20
48043;DHT22;33988;47.992;8.820;2022-09-13T05:24:15;15.60;60.30
48043;DHT22;33988;47.992;8.820;2022-09-13T05:26:45;15.60;60.30
48043;DHT22;33988;47.992;8.820;2022-09-13T05:29:16;15.60;60.40
48043;DHT22;33988;47.992;8.820;2022-09-13T05:31:43;15.60;60.40
48043;DHT22;33988;47.992;8.820;2022-09-13T05:34:14;15.60;60.40
48043;DHT22;33988;47.992;8.820;2022-09-13T05:36:46;15.70;60.50
48043;DHT22;33988;47.992;8.820;2022-09-13T05:39:20;15.70;60.40
48043;DHT22;33988;47.992;8.820;2022-09-13T05:42:05;15.70;60.40
48043;DHT22;33988;47.992;8.820;2022-09-13T05:44:34;15.70;60.30
48043;DHT22;33988;47.992;8.820;2022-09-13T05:47:03;15.70;60.40
48043;DHT22;33988;47.992;8.820;2022-09-13T05:49:31;15.70;60.30
48043;DHT22;33988;47.992;8.820;2022-09-13T05:51:58;15.70;60.30
48043;DHT22;33988;47.992;8.820;2022-09-13T05:54:25;15.70;60.30
48043;DHT22;33988;47.992;8.820;2022-09-13T05:56:51;15.70;60.40
48043;DHT22;33988;47.992;8.820;2022-09-13T05:59:22;15.70;60.40
48043;DHT22;33988;47.992;8.820;2022-09-13T06:01:49;15.70;60.50
48043;DHT22;33988;47.992;8.820;2022-09-13T06:04:16;15.80;60.60
48043;DHT22;33988;47.992;8.820;2022-09-13T06:06:44;15.80;60.60
48043;DHT22;33988;47.992;8.820;2022-09-13T06:09:11;15.80;60.60
48043;DHT22;33988;47.992;8.820;2022-09-13T06:11:38;15.80;60.70
48043;DHT22;33988;47.992;8.820;2022-09-13T06:14:05;15.80;60.70
48043;DHT22;33988;47.992;8.820;2022-09-13T06:16:37;15.90;60.90
48043;DHT22;33988;47.992;8.820;2022-09-13T06:19:06;15.90;60.90
48043;DHT22;33988;47.992;8.820;2022-09-13T06:21:34;16.00;61.80
48043;DHT22;33988;47.992;8.820;2022-09-13T06:24:03;16.00;61.00
48043;DHT22;33988;47.992;8.820;2022-09-13T06:26:32;16.00;60.90
48043;DHT22;33988;47.992;8.820;2022-09-13T06:29:00;15.90;61.10
48043;DHT22;33988;47.992;8.820;2022-09-13T06:31:32;16.10;61.00
48043;DHT22;33988;47.992;8.820;2022-09-13T06:34:00;16.10;61.10
48043;DHT22;33988;47.992;8.820;2022-09-13T06:36:32;16.20;61.10
48043;DHT22;33988;47.992;8.820;2022-09-13T06:38:59;16.20;61.20
48043;DHT22;33988;47.992;8.820;2022-09-13T06:41:29;16.30;61.40
48043;DHT22;33988;47.992;8.820;2022-09-13T06:43:59;16.30;61.40
48043;DHT22;33988;47.992;8.820;2022-09-13T06:46:30;16.20;61.50
48043;DHT22;33988;47.992;8.820;2022-09-13T06:49:00;16.40;61.40
48043;DHT22;33988;47.992;8.820;2022-09-13T06:51:30;16.50;61.60
48043;DHT22;33988;47.992;8.820;2022-09-13T06:53:58;16.60;61.60
48043;DHT22;33988;47.992;8.820;2022-09-13T06:56:28;16.60;61.60
48043;DHT22;33988;47.992;8.820;2022-09-13T06:59:05;16.60;61.60
48043;DHT22;33988;47.992;8.820;2022-09-13T07:01:37;16.70;61.80
48043;DHT22;33988;47.992;8.820;2022-09-13T07:04:11;16.80;61.90
48043;DHT22;33988;47.992;8.820;2022-09-13T07:06:42;16.90;62.00
48043;DHT22;33988;47.992;8.820;2022-09-13T07:09:18;16.90;62.10
48043;DHT22;33988;47.992;8.820;2022-09-13T07:11:53;17.00;62.10
48043;DHT22;33988;47.992;8.820;2022-09-13T07:14:23;17.10;62.40
48043;DHT22;33988;47.992;8.820;2022-09-13T07:16:56;17.20;62.40
48043;DHT22;33988;47.992;8.820;2022-09-13T07:19:24;17.30;62.40
48043;DHT22;33988;47.992;8.820;2022-09-13T07:21:55;17.40;62.50
48043;DHT22;33988;47.992;8.820;2022-09-13T07:24:25;17.50;62.50
48043;DHT22;33988;47.992;8.820;2022-09-13T07:26:55;17.60;62.60
48043;DHT22;33988;47.992;8.820;2022-09-13T07:29:22;17.70;62.80
48043;DHT22;33988;47.992;8.820;2022-09-13T07:31:52;17.80;63.00
48043;DHT22;33988;47.992;8.820;2022-09-13T07:34:21;17.90;63.20
48043;DHT22;33988;47.992;8.820;2022-09-13T07:36:52;18.00;64.20
48043;DHT22;33988;47.992;8.820;2022-09-13T07:39:19;18.20;63.50
48043;DHT22;33988;47.992;8.820;2022-09-13T07:41:49;18.30;63.40
48043;DHT22;33988;47.992;8.820;2022-09-13T07:44:16;18.40;63.50
48043;DHT22;33988;47.992;8.820;2022-09-13T07:46:45;18.60;63.60
48043;DHT22;33988;47.992;8.820;2022-09-13T07:49:15;18.80;63.70
48043;DHT22;33988;47.992;8.820;2022-09-13T07:51:43;18.90;63.80
48043;DHT22;33988;47.992;8.820;2022-09-13T07:54:16;19.10;63.90
48043;DHT22;33988;47.992;8.820;2022-09-13T07:56:46;19.40;64.20
48043;DHT22;33988;47.992;8.820;2022-09-13T07:59:16;19.70;64.40
48043;DHT22;33988;47.992;8.820;2022-09-13T08:01:47;20.10;64.60
48043;DHT22;33988;47.992;8.820;2022-09-13T08:04:19;20.60;64.50
48043;DHT22;33988;47.992;8.820;2022-09-13T08:06:48;21.00;64.00
48043;DHT22;33988;47.992;8.820;2022-09-13T08:09:16;21.60;63.60
48043;DHT22;33988;47.992;8.820;2022-09-13T08:11:50;22.10;62.80
48043;DHT22;33988;47.992;8.820;2022-09-13T08:14:21;22.70;61.80
48043;DHT22;33988;47.992;8.820;2022-09-13T08:16:49;23.30;61.10
48043;DHT22;33988;47.992;8.820;2022-09-13T08:19:18;23.80;60.10
48043;DHT22;33988;47.992;8.820;2022-09-13T08:21:46;24.40;59.20
48043;DHT22;33988;47.992;8.820;2022-09-13T08:24:16;24.90;58.20
48043;DHT22;33988;47.992;8.820;2022-09-13T08:26:44;25.50;57.30
48043;DHT22;33988;47.992;8.820;2022-09-13T08:29:15;26.00;56.70
48043;DHT22;33988;47.992;8.820;2022-09-13T08:31:47;26.50;56.00
48043;DHT22;33988;47.992;8.820;2022-09-13T08:34:15;27.00;55.00
48043;DHT22;33988;47.992;8.820;2022-09-13T08:36:42;27.40;54.10
48043;DHT22;33988;47.992;8.820;2022-09-13T08:39:10;27.90;53.60
48043;DHT22;33988;47.992;8.820;2022-09-13T08:44:34;28.70;52.40
48043;DHT22;33988;47.992;8.820;2022-09-13T08:52:52;29.80;49.80
48043;DHT22;33988;47.992;8.820;2022-09-13T09:10:29;31.20;49.50
48043;DHT22;33988;47.992;8.820;2022-09-13T09:12:42;31.70;48.00
48043;DHT22;33988;47.992;8.820;2022-09-13T09:15:25;31.90;46.80
48043;DHT22;33988;47.992;8.820;2022-09-13T09:18:19;32.20;46.50
48043;DHT22;33988;47.992;8.820;2022-09-13T09:20:51;32.30;45.60
48043;DHT22;33988;47.992;8.820;2022-09-13T09:23:37;32.50;45.40
48043;DHT22;33988;47.992;8.820;2022-09-13T09:26:17;32.60;45.00
48043;DHT22;33988;47.992;8.820;2022-09-13T09:29:28;32.80;45.00
48043;DHT22;33988;47.992;8.820;2022-09-13T09:35:29;33.10;44.30
48043;DHT22;33988;47.992;8.820;2022-09-13T09:41:17;33.40;43.90
48043;DHT22;33988;47.992;8.820;2022-09-13T09:47:14;33.70;43.10
48043;DHT22;33988;47.992;8.820;2022-09-13T09:49:47;33.80;42.80
48043;DHT22;33988;47.992;8.820;2022-09-13T09:53:07;33.80;42.40
48043;DHT22;33988;47.992;8.820;2022-09-13T09:56:16;33.90;42.30
48043;DHT22;33988;47.992;8.820;2022-09-13T09:58:51;33.90;42.80
48043;DHT22;33988;47.992;8.820;2022-09-13T10:06:45;34.00;41.40
48043;DHT22;33988;47.992;8.820;2022-09-13T10:11:56;34.00;42.00
48043;DHT22;33988;47.992;8.820;2022-09-13T10:14:38;34.00;41.20
48043;DHT22;33988;47.992;8.820;2022-09-13T10:19:56;34.00;41.40
48043;DHT22;33988;47.992;8.820;2022-09-13T10:22:31;34.00;41.90
48043;DHT22;33988;47.992;8.820;2022-09-13T10:27:54;34.00;41.10
48043;DHT22;33988;47.992;8.820;2022-09-13T10:33:00;34.00;40.40
48043;DHT22;33988;47.992;8.820;2022-09-13T10:35:31;34.00;40.20
48043;DHT22;33988;47.992;8.820;2022-09-13T10:37:59;34.00;39.50
48043;DHT22;33988;47.992;8.820;2022-09-13T10:40:30;34.00;38.80
48043;DHT22;33988;47.992;8.820;2022-09-13T10:43:13;34.00;38.40
48043;DHT22;33988;47.992;8.820;2022-09-13T10:45:44;33.90;38.10
48043;DHT22;33988;47.992;8.820;2022-09-13T10:48:16;34.00;38.40
48043;DHT22;33988;47.992;8.820;2022-09-13T10:56:24;33.90;37.80
48043;DHT22;33988;47.992;8.820;2022-09-13T10:59:19;33.80;37.40
48043;DHT22;33988;47.992;8.820;2022-09-13T11:10:36;33.60;37.50
48043;DHT22;33988;47.992;8.820;2022-09-13T11:21:48;33.40;38.00
48043;DHT22;33988;47.992;8.820;2022-09-13T11:24:29;33.30;36.00
48043;DHT22;33988;47.992;8.820;2022-09-13T11:27:46;33.20;37.30
48043;DHT22;33988;47.992;8.820;2022-09-13T11:30:20;33.10;36.50
48043;DHT22;33988;47.992;8.820;2022-09-13T11:33:18;33.00;36.60
48043;DHT22;33988;47.992;8.820;2022-09-13T11:41:49;32.40;37.20
48043;DHT22;33988;47.992;8.820;2022-09-13T11:50:24;32.00;37.20
48043;DHT22;33988;47.992;8.820;2022-09-13T11:55:47;31.90;37.70
48043;DHT22;33988;47.992;8.820;2022-09-13T12:01:23;31.90;37.30
48043;DHT22;33988;47.992;8.820;2022-09-13T12:03:59;31.90;37.30
48043;DHT22;33988;47.992;8.820;2022-09-13T12:06:42;32.00;37.00
48043;DHT22;33988;47.992;8.820;2022-09-13T12:11:52;32.00;36.80
48043;DHT22;33988;47.992;8.820;2022-09-13T12:14:29;32.10;35.80
48043;DHT22;33988;47.992;8.820;2022-09-13T12:17:11;32.10;35.30
48043;DHT22;33988;47.992;8.820;2022-09-13T12:19:51;32.00;35.90
48043;DHT22;33988;47.992;8.820;2022-09-13T12:22:23;32.10;36.50
48043;DHT22;33988;47.992;8.820;2022-09-13T12:24:58;32.10;36.30
48043;DHT22;33988;47.992;8.820;2022-09-13T12:27:50;32.20;36.60
48043;DHT22;33988;47.992;8.820;2022-09-13T12:30:22;32.20;36.10
48043;DHT22;33988;47.992;8.820;2022-09-13T12:32:53;32.10;36.30
48043;DHT22;33988;47.992;8.820;2022-09-13T12:35:32;32.10;36.00
48043;DHT22;33988;47.992;8.820;2022-09-13T12:44:45;31.90;36.90
48043;DHT22;33988;47.992;8.820;2022-09-13T13:03:03;31.40;38.20
48043;DHT22;33988;47.992;8.820;2022-09-13T13:06:06;31.40;39.00
48043;DHT22;33988;47.992;8.820;2022-09-13T13:08:52;31.30;38.30
48043;DHT22;33988;47.992;8.820;2022-09-13T13:11:25;31.20;38.10
48043;DHT22;33988;47.992;8.820;2022-09-13T13:14:01;31.20;38.30
48043;DHT22;33988;47.992;8.820;2022-09-13T13:16:36;31.10;38.70
48043;DHT22;33988;47.992;8.820;2022-09-13T13:19:30;31.10;39.30
48043;DHT22;33988;47.992;8.820;2022-09-13T13:25:32;30.90;39.30
48043;DHT22;33988;47.992;8.820;2022-09-13T13:36:29;30.70;40.40
48043;DHT22;33988;47.992;8.820;2022-09-13T13:39:01;30.60;40.70
48043;DHT22;33988;47.992;8.820;2022-09-13T14:00:18;30.00;42.20
48043;DHT22;33988;47.992;8.820;2022-09-13T14:11:00;29.90;42.90
48043;DHT22;33988;47.992;8.820;2022-09-13T14:20:09;29.80;42.80
48043;DHT22;33988;47.992;8.820;2022-09-13T14:22:38;29.70;42.50
48043;DHT22;33988;47.992;8.820;2022-09-13T14:27:46;29.70;44.50
48043;DHT22;33988;47.992;8.820;2022-09-13T14:30:32;29.60;44.10
48043;DHT22;33988;47.992;8.820;2022-09-13T14:33:04;29.50;43.50
48043;DHT22;33988;47.992;8.820;2022-09-13T14:38:19;29.40;44.10
48043;DHT22;33988;47.992;8.820;2022-09-13T14:41:13;29.40;44.80
48043;DHT22;33988;47.992;8.820;2022-09-13T14:43:43;29.30;45.50
48043;DHT22;33988;47.992;8.820;2022-09-13T14:46:38;29.30;44.20
48043;DHT22;33988;47.992;8.820;2022-09-13T14:49:12;29.20;43.60
48043;DHT22;33988;47.992;8.820;2022-09-13T14:54:15;29.20;43.50
48043;DHT22;33988;47.992;8.820;2022-09-13T14:56:49;29.20;43.50
48043;DHT22;33988;47.992;8.820;2022-09-13T14:59:42;29.20;43.50
48043;DHT22;33988;47.992;8.820;2022-09-13T15:02:21;29.20;44.50
48043;DHT22;33988;47.992;8.820;2022-09-13T15:04:54;29.10;44.30
48043;DHT22;33988;47.992;8.820;2022-09-13T15:07:31;29.20;44.10
48043;DHT22;33988;47.992;8.820;2022-09-13T15:10:22;29.10;44.90
48043;DHT22;33988;47.992;8.820;2022-09-13T15:15:37;29.00;44.10
48043;DHT22;33988;47.992;8.820;2022-09-13T15:26:18;28.80;44.40
48043;DHT22;33988;47.992;8.820;2022-09-13T15:31:24;28.50;44.30
48043;DHT22;33988;47.992;8.820;2022-09-13T15:36:45;28.50;43.50
48043;DHT22;33988;47.992;8.820;2022-09-13T15:39:22;28.50;43.50
48043;DHT22;33988;47.992;8.820;2022-09-13T15:41:57;28.50;44.30
48043;DHT22;33988;47.992;8.820;2022-09-13T15:44:27;28.40;44.80
48043;DHT22;33988;47.992;8.820;2022-09-13T15:47:02;28.40;45.60
48043;DHT22;33988;47.992;8.820;2022-09-13T15:49:37;28.40;45.90
48043;DHT22;33988;47.992;8.820;2022-09-13T15:52:07;28.40;45.10
48043;DHT22;33988;47.992;8.820;2022-09-13T15:54:41;28.30;45.30
48043;DHT22;33988;47.992;8.820;2022-09-13T15:57:24;28.20;44.80
48043;DHT22;33988;47.992;8.820;2022-09-13T15:59:55;28.20;45.80
48043;DHT22;33988;47.992;8.820;2022-09-13T16:02:32;28.10;45.90
48043;DHT22;33988;47.992;8.820;2022-09-13T16:05:01;28.00;45.60
48043;DHT22;33988;47.992;8.820;2022-09-13T16:07:31;28.00;45.10
48043;DHT22;33988;47.992;8.820;2022-09-13T16:09:57;28.00;45.10
48043;DHT22;33988;47.992;8.820;2022-09-13T16:12:25;27.90;44.90
48043;DHT22;33988;47.992;8.820;2022-09-13T16:14:54;28.00;45.10
48043;DHT22;33988;47.992;8.820;2022-09-13T16:17:25;28.00;45.10
48043;DHT22;33988;47.992;8.820;2022-09-13T16:19:55;27.90;45.10
48043;DHT22;33988;47.992;8.820;2022-09-13T16:22:27;28.00;46.00
48043;DHT22;33988;47.992;8.820;2022-09-13T16:24:54;28.00;45.60
48043;DHT22;33988;47.992;8.820;2022-09-13T16:27:24;28.00;45.70
48043;DHT22;33988;47.992;8.820;2022-09-13T16:30:02;28.00;46.20
48043;DHT22;33988;47.992;8.820;2022-09-13T16:32:31;28.00;46.00
48043;DHT22;33988;47.992;8.820;2022-09-13T16:35:01;28.00;45.90
48043;DHT22;33988;47.992;8.820;2022-09-13T16:37:27;27.90;45.90
48043;DHT22;33988;47.992;8.820;2022-09-13T16:39:55;27.90;45.90
48043;DHT22;33988;47.992;8.820;2022-09-13T16:42:25;27.90;46.10
48043;DHT22;33988;47.992;8.820;2022-09-13T16:44:52;27.80;46.20
48043;DHT22;33988;47.992;8.820;2022-09-13T16:47:19;27.80;46.30
48043;DHT22;33988;47.992;8.820;2022-09-13T16:49:49;27.80;46.30
48043;DHT22;33988;47.992;8.820;2022-09-13T16:52:19;27.80;46.50
48043;DHT22;33988;47.992;8.820;2022-09-13T16:54:46;27.80;46.50
48043;DHT22;33988;47.992;8.820;2022-09-13T16:57:14;27.80;47.10
48043;DHT22;33988;47.992;8.820;2022-09-13T16:59:41;27.70;47.20
48043;DHT22;33988;47.992;8.820;2022-09-13T17:02:10;27.70;47.30
48043;DHT22;33988;47.992;8.820;2022-09-13T17:04:37;27.70;47.60
48043;DHT22;33988;47.992;8.820;2022-09-13T17:07:04;27.70;47.70
48043;DHT22;33988;47.992;8.820;2022-09-13T17:09:38;27.70;48.10
48043;DHT22;33988;47.992;8.820;2022-09-13T17:12:07;27.60;48.20
48043;DHT22;33988;47.992;8.820;2022-09-13T17:14:35;27.60;48.30
48043;DHT22;33988;47.992;8.820;2022-09-13T17:17:10;27.50;48.40
48043;DHT22;33988;47.992;8.820;2022-09-13T17:19:38;27.50;48.50
48043;DHT22;33988;47.992;8.820;2022-09-13T17:22:09;27.40;48.80
48043;DHT22;33988;47.992;8.820;2022-09-13T17:24:39;27.40;49.30
48043;DHT22;33988;47.992;8.820;2022-09-13T17:27:06;27.40;49.40
48043;DHT22;33988;47.992;8.820;2022-09-13T17:29:34;27.30;49.60
48043;DHT22;33988;47.992;8.820;2022-09-13T17:32:03;27.20;49.70
48043;DHT22;33988;47.992;8.820;2022-09-13T17:34:37;27.10;49.90
48043;DHT22;33988;47.992;8.820;2022-09-13T17:37:04;27.00;50.10
48043;DHT22;33988;47.992;8.820;2022-09-13T17:39:34;27.00;50.40
48043;DHT22;33988;47.992;8.820;2022-09-13T17:42:08;26.90;50.60
48043;DHT22;33988;47.992;8.820;2022-09-13T17:44:34;26.80;50.80
48043;DHT22;33988;47.992;8.820;2022-09-13T17:47:01;26.70;51.00
48043;DHT22;33988;47.992;8.820;2022-09-13T17:49:32;26.60;51.20
48043;DHT22;33988;47.992;8.820;2022-09-13T17:51:59;26.50;51.40
48043;DHT22;33988;47.992;8.820;2022-09-13T17:54:29;26.50;51.60
48043;DHT22;33988;47.992;8.820;2022-09-13T17:56:59;26.40;51.80
48043;DHT22;33988;47.992;8.820;2022-09-13T17:59:28;26.30;51.70
48043;DHT22;33988;47.992;8.820;2022-09-13T18:01:56;26.20;51.80
48043;DHT22;33988;47.992;8.820;2022-09-13T18:04:27;26.20;52.00
48043;DHT22;33988;47.992;8.820;2022-09-13T18:06:54;26.10;52.10
48043;DHT22;33988;47.992;8.820;2022-09-13T18:09:23;26.00;52.30
48043;DHT22;33988;47.992;8.820;2022-09-13T18:11:55;26.00;52.50
48043;DHT22;33988;47.992;8.820;2022-09-13T18:14:24;25.90;52.80
48043;DHT22;33988;47.992;8.820;2022-09-13T18:16:54;25.80;52.90
48043;DHT22;33988;47.992;8.820;2022-09-13T18:19:24;25.80;53.10
48043;DHT22;33988;47.992;8.820;2022-09-13T18:22:11;25.80;53.20
48043;DHT22;33988;47.992;8.820;2022-09-13T18:24:40;25.70;53.40
48043;DHT22;33988;47.992;8.820;2022-09-13T18:27:10;25.70;54.20
48043;DHT22;33988;47.992;8.820;2022-09-13T18:29:37;25.60;53.70
48043;DHT22;33988;47.992;8.820;2022-09-13T18:32:04;25.60;53.80
48043;DHT22;33988;47.992;8.820;2022-09-13T18:34:31;25.50;53.90
48043;DHT22;33988;47.992;8.820;2022-09-13T18:37:01;25.50;54.00
48043;DHT22;33988;47.992;8.820;2022-09-13T18:39:27;25.40;54.10
48043;DHT22;33988;47.992;8.820;2022-09-13T18:41:54;25.40;54.10
48043;DHT22;33988;47.992;8.820;2022-09-13T18:44:21;25.40;54.20
48043;DHT22;33988;47.992;8.820;2022-09-13T18:46:50;25.40;54.30
48043;DHT22;33988;47.992;8.820;2022-09-13T18:49:19;25.30;54.40
48043;DHT22;33988;47.992;8.820;2022-09-13T18:51:47;25.30;54.50
48043;DHT22;33988;47.992;8.820;2022-09-13T18:54:16;25.30;54.60
48043;DHT22;33988;47.992;8.820;2022-09-13T18:56:45;25.20;54.60
48043;DHT22;33988;47.992;8.820;2022-09-13T18:59:13;25.20;54.80
48043;DHT22;33988;47.992;8.820;2022-09-13T19:01:43;25.20;54.90
48043;DHT22;33988;47.992;8.820;2022-09-13T19:04:18;25.10;55.00
48043;DHT22;33988;47.992;8.820;2022-09-13T19:06:51;25.10;55.30
48043;DHT22;33988;47.992;8.820;2022-09-13T19:09:20;25.00;55.30
48043;DHT22;33988;47.992;8.820;2022-09-13T19:11:50;25.00;55.20
48043;DHT22;33988;47.992;8.820;2022-09-13T19:14:25;25.00;55.30
48043;DHT22;33988;47.992;8.820;2022-09-13T19:16:57;25.00;55.50
48043;DHT22;33988;47.992;8.820;2022-09-13T19:19:30;25.00;55.50
48043;DHT22;33988;47.992;8.820;2022-09-13T19:22:01;24.90;55.60
48043;DHT22;33988;47.992;8.820;2022-09-13T19:24:28;24.90;55.70
48043;DHT22;33988;47.992;8.820;2022-09-13T19:26:59;24.90;55.80
48043;DHT22;33988;47.992;8.820;2022-09-13T19:29:27;24.60;55.70
48043;DHT22;33988;47.992;8.820;2022-09-13T19:31:53;24.80;55.70
48043;DHT22;33988;47.992;8.820;2022-09-13T19:34:23;24.80;55.80
48043;DHT22;33988;47.992;8.820;2022-09-13T19:36:51;24.80;55.90
48043;DHT22;33988;47.992;8.820;2022-09-13T19:39:23;24.80;56.00
48043;DHT22;33988;47.992;8.820;2022-09-13T19:41:57;24.80;56.10
48043;DHT22;33988;47.992;8.820;2022-09-13T19:44:27;24.70;56.20
48043;DHT22;33988;47.992;8.820;2022-09-13T19:46:57;24.70;56.20
48043;DHT22;33988;47.992;8.820;2022-09-13T19:49:46;24.70;57.00
48043;DHT22;33988;47.992;8.820;2022-09-13T19:52:15;24.60;56.30
48043;DHT22;33988;47.992;8.820;2022-09-13T19:54:44;24.60;56.40
48043;DHT22;33988;47.992;8.820;2022-09-13T19:57:16;24.60;56.50
48043;DHT22;33988;47.992;8.820;2022-09-13T19:59:50;24.60;56.60
48043;DHT22;33988;47.992;8.820;2022-09-13T20:02:17;24.60;56.50
48043;DHT22;33988;47.992;8.820;2022-09-13T20:04:45;24.50;56.50
48043;DHT22;33988;47.992;8.820;2022-09-13T20:07:13;24.50;56.60
48043;DHT22;33988;47.992;8.820;2022-09-13T20:09:40;24.50;56.70
48043;DHT22;33988;47.992;8.820;2022-09-13T20:12:15;24.50;56.80